sensor_id;sensor_type;location;lat;lon;timestamp;P1;durP1;ratioP1;P2;durP2;ratioP2
6378;SDS011;3222;48.858;10.128;2023-07-20T00:02:08;6.43;;;2.40;;
6378;SDS011;3222;48.858;10.128;2023-07-20T00:04:33;6.23;;;2.80;;
6378;SDS011;3222;48.858;10.128;2023-07-20T00:06:59;4.93;;;2.10;;
6378;SDS011;3222;48.858;10.128;2023-07-20T00:09:26;3.70;;;1.97;;
6378;SDS011;3222;48.858;10.128;2023-07-20T00:11:52;2.23;;;1.87;;
6378;SDS011;3222;48.858;10.128;2023-07-20T00:14:18;3.30;;;2.00;;
6378;SDS011;3222;48.858;10.128;2023-07-20T00:16:45;4.90;;;2.23;;
6378;SDS011;3222;48.858;10.128;2023-07-20T00:19:14;5.33;;;2.40;;
6378;SDS011;3222;48.858;10.128;2023-07-20T00:21:41;3.57;;;2.10;;
6378;SDS011;3222;48.858;10.128;2023-07-20T00:24:07;5.33;;;2.07;;
6378;SDS011;3222;48.858;10.128;2023-07-20T00:26:33;4.33;;;2.80;;
6378;SDS011;3222;48.858;10.128;2023-07-20T00:28:59;5.20;;;3.00;;
6378;SDS011;3222;48.858;10.128;2023-07-20T00:31:26;6.20;;;3.10;;
6378;SDS011;3222;48.858;10.128;2023-07-20T00:33:52;5.87;;;2.80;;
6378;SDS011;3222;48.858;10.128;2023-07-20T00:36:18;3.93;;;2.70;;
6378;SDS011;3222;48.858;10.128;2023-07-20T00:38:43;5.10;;;3.10;;
6378;SDS011;3222;48.858;10.128;2023-07-20T00:41:09;6.00;;;3.30;;
6378;SDS011;3222;48.858;10.128;2023-07-20T00:43:36;3.87;;;3.03;;
6378;SDS011;3222;48.858;10.128;2023-07-20T00:46:02;5.33;;;3.50;;
6378;SDS011;3222;48.858;10.128;2023-07-20T00:48:29;5.37;;;4.47;;
6378;SDS011;3222;48.858;10.128;2023-07-20T00:50:56;4.43;;;3.70;;
6378;SDS011;3222;48.858;10.128;2023-07-20T00:53:25;6.50;;;3.90;;
6378;SDS011;3222;48.858;10.128;2023-07-20T00:55:51;4.37;;;3.83;;
6378;SDS011;3222;48.858;10.128;2023-07-20T00:58:17;6.97;;;4.30;;
6378;SDS011;3222;48.858;10.128;2023-07-20T01:00:44;4.70;;;3.60;;
6378;SDS011;3222;48.858;10.128;2023-07-20T01:03:11;3.47;;;3.10;;
6378;SDS011;3222;48.858;10.128;2023-07-20T01:10:54;4.67;;;3.17;;
6378;SDS011;3222;48.858;10.128;2023-07-20T01:13:31;3.23;;;2.23;;
6378;SDS011;3222;48.858;10.128;2023-07-20T01:16:01;2.57;;;2.37;;
6378;SDS011;3222;48.858;10.128;2023-07-20T01:18:27;2.73;;;2.10;;
6378;SDS011;3222;48.858;10.128;2023-07-20T01:20:54;2.50;;;1.80;;
6378;SDS011;3222;48.858;10.128;2023-07-20T01:23:36;4.10;;;1.60;;
6378;SDS011;3222;48.858;10.128;2023-07-20T01:26:31;2.43;;;1.90;;
6378;SDS011;3222;48.858;10.128;2023-07-20T01:31:57;2.23;;;2.07;;
6378;SDS011;3222;48.858;10.128;2023-07-20T01:34:23;3.07;;;2.40;;
6378;SDS011;3222;48.858;10.128;2023-07-20T01:36:50;2.80;;;1.93;;
6378;SDS011;3222;48.858;10.128;2023-07-20T01:39:19;3.10;;;2.50;;
6378;SDS011;3222;48.858;10.128;2023-07-20T01:41:46;2.30;;;1.97;;
6378;SDS011;3222;48.858;10.128;2023-07-20T01:44:12;3.70;;;2.40;;
6378;SDS011;3222;48.858;10.128;2023-07-20T01:46:39;2.13;;;1.80;;
6378;SDS011;3222;48.858;10.128;2023-07-20T01:49:05;3.00;;;2.10;;
6378;SDS011;3222;48.858;10.128;2023-07-20T01:51:30;2.70;;;1.90;;
6378;SDS011;3222;48.858;10.128;2023-07-20T01:53:56;2.50;;;1.77;;
6378;SDS011;3222;48.858;10.128;2023-07-20T01:56:22;3.10;;;2.80;;
6378;SDS011;3222;48.858;10.128;2023-07-20T01:58:47;3.27;;;2.47;;
6378;SDS011;3222;48.858;10.128;2023-07-20T02:01:13;3.80;;;1.97;;
6378;SDS011;3222;48.858;10.128;2023-07-20T02:03:39;2.00;;;1.90;;
6378;SDS011;3222;48.858;10.128;2023-07-20T02:06:05;3.10;;;1.67;;
6378;SDS011;3222;48.858;10.128;2023-07-20T02:08:30;2.73;;;1.47;;
6378;SDS011;3222;48.858;10.128;2023-07-20T02:10:56;1.80;;;1.70;;
6378;SDS011;3222;48.858;10.128;2023-07-20T02:13:22;2.13;;;1.90;;
6378;SDS011;3222;48.858;10.128;2023-07-20T02:15:48;4.90;;;2.13;;
6378;SDS011;3222;48.858;10.128;2023-07-20T02:18:15;2.87;;;2.20;;
6378;SDS011;3222;48.858;10.128;2023-07-20T02:20:41;5.40;;;2.90;;
6378;SDS011;3222;48.858;10.128;2023-07-20T02:23:07;4.60;;;2.10;;
6378;SDS011;3222;48.858;10.128;2023-07-20T02:25:33;2.53;;;2.30;;
6378;SDS011;3222;48.858;10.128;2023-07-20T02:27:58;2.20;;;2.00;;
6378;SDS011;3222;48.858;10.128;2023-07-20T02:30:25;4.43;;;2.80;;
6378;SDS011;3222;48.858;10.128;2023-07-20T02:32:52;4.97;;;2.03;;
6378;SDS011;3222;48.858;10.128;2023-07-20T02:35:23;3.13;;;2.03;;
6378;SDS011;3222;48.858;10.128;2023-07-20T02:37:50;3.57;;;2.27;;
6378;SDS011;3222;48.858;10.128;2023-07-20T02:40:16;3.97;;;2.67;;
6378;SDS011;3222;48.858;10.128;2023-07-20T02:42:41;4.70;;;2.47;;
6378;SDS011;3222;48.858;10.128;2023-07-20T02:45:08;5.73;;;2.73;;
6378;SDS011;3222;48.858;10.128;2023-07-20T02:47:34;6.60;;;4.47;;
6378;SDS011;3222;48.858;10.128;2023-07-20T02:50:00;5.90;;;3.47;;
6378;SDS011;3222;48.858;10.128;2023-07-20T02:52:26;5.10;;;3.20;;
6378;SDS011;3222;48.858;10.128;2023-07-20T02:54:52;3.13;;;2.83;;
6378;SDS011;3222;48.858;10.128;2023-07-20T02:57:18;3.37;;;2.47;;
6378;SDS011;3222;48.858;10.128;2023-07-20T02:59:44;2.53;;;1.70;;
6378;SDS011;3222;48.858;10.128;2023-07-20T03:02:09;2.63;;;2.10;;
6378;SDS011;3222;48.858;10.128;2023-07-20T03:04:36;4.23;;;2.07;;
6378;SDS011;3222;48.858;10.128;2023-07-20T03:07:04;3.33;;;1.80;;
6378;SDS011;3222;48.858;10.128;2023-07-20T03:09:30;2.37;;;2.00;;
6378;SDS011;3222;48.858;10.128;2023-07-20T03:11:56;3.00;;;2.47;;
6378;SDS011;3222;48.858;10.128;2023-07-20T03:14:22;2.53;;;2.20;;
6378;SDS011;3222;48.858;10.128;2023-07-20T03:16:49;3.37;;;2.33;;
6378;SDS011;3222;48.858;10.128;2023-07-20T03:19:15;4.40;;;2.33;;
6378;SDS011;3222;48.858;10.128;2023-07-20T03:21:41;2.30;;;2.10;;
6378;SDS011;3222;48.858;10.128;2023-07-20T03:24:08;3.00;;;2.13;;
6378;SDS011;3222;48.858;10.128;2023-07-20T03:26:34;4.40;;;2.17;;
6378;SDS011;3222;48.858;10.128;2023-07-20T03:29:01;3.57;;;1.83;;
6378;SDS011;3222;48.858;10.128;2023-07-20T03:31:27;4.13;;;2.17;;
6378;SDS011;3222;48.858;10.128;2023-07-20T03:33:53;3.10;;;2.40;;
6378;SDS011;3222;48.858;10.128;2023-07-20T03:36:19;3.03;;;2.30;;
6378;SDS011;3222;48.858;10.128;2023-07-20T03:38:45;3.00;;;2.40;;
6378;SDS011;3222;48.858;10.128;2023-07-20T03:41:11;3.50;;;2.63;;
6378;SDS011;3222;48.858;10.128;2023-07-20T03:43:37;3.10;;;2.30;;
6378;SDS011;3222;48.858;10.128;2023-07-20T03:46:03;2.87;;;2.30;;
6378;SDS011;3222;48.858;10.128;2023-07-20T03:48:32;4.00;;;2.20;;
6378;SDS011;3222;48.858;10.128;2023-07-20T03:50:58;4.50;;;2.03;;
6378;SDS011;3222;48.858;10.128;2023-07-20T03:53:25;2.50;;;2.30;;
6378;SDS011;3222;48.858;10.128;2023-07-20T03:55:52;3.73;;;2.30;;
6378;SDS011;3222;48.858;10.128;2023-07-20T03:58:18;2.50;;;2.30;;
6378;SDS011;3222;48.858;10.128;2023-07-20T04:00:47;2.00;;;1.90;;
6378;SDS011;3222;48.858;10.128;2023-07-20T04:03:18;2.10;;;2.00;;
6378;SDS011;3222;48.858;10.128;2023-07-20T04:05:44;5.17;;;2.70;;
6378;SDS011;3222;48.858;10.128;2023-07-20T04:08:10;2.10;;;1.80;;
6378;SDS011;3222;48.858;10.128;2023-07-20T04:10:36;4.60;;;2.63;;
6378;SDS011;3222;48.858;10.128;2023-07-20T04:13:03;3.60;;;2.33;;
6378;SDS011;3222;48.858;10.128;2023-07-20T04:15:29;3.23;;;2.20;;
6378;SDS011;3222;48.858;10.128;2023-07-20T04:17:55;4.10;;;2.20;;
6378;SDS011;3222;48.858;10.128;2023-07-20T04:20:22;3.67;;;2.30;;
6378;SDS011;3222;48.858;10.128;2023-07-20T04:22:48;3.07;;;2.03;;
6378;SDS011;3222;48.858;10.128;2023-07-20T04:25:14;3.80;;;2.10;;
6378;SDS011;3222;48.858;10.128;2023-07-20T04:27:41;3.07;;;2.00;;
6378;SDS011;3222;48.858;10.128;2023-07-20T04:30:07;4.73;;;2.30;;
6378;SDS011;3222;48.858;10.128;2023-07-20T04:32:36;3.27;;;2.37;;
6378;SDS011;3222;48.858;10.128;2023-07-20T04:35:05;2.00;;;1.80;;
6378;SDS011;3222;48.858;10.128;2023-07-20T04:37:33;2.70;;;2.00;;
6378;SDS011;3222;48.858;10.128;2023-07-20T04:40:00;2.30;;;2.10;;
6378;SDS011;3222;48.858;10.128;2023-07-20T04:42:26;2.50;;;2.13;;
6378;SDS011;3222;48.858;10.128;2023-07-20T04:44:53;2.30;;;2.10;;
6378;SDS011;3222;48.858;10.128;2023-07-20T04:47:19;10.07;;;5.83;;
6378;SDS011;3222;48.858;10.128;2023-07-20T04:49:47;6.10;;;4.60;;
6378;SDS011;3222;48.858;10.128;2023-07-20T04:52:13;3.97;;;3.50;;
6378;SDS011;3222;48.858;10.128;2023-07-20T04:54:39;6.03;;;3.60;;
6378;SDS011;3222;48.858;10.128;2023-07-20T04:57:11;5.50;;;3.50;;
6378;SDS011;3222;48.858;10.128;2023-07-20T04:59:41;4.70;;;3.17;;
6378;SDS011;3222;48.858;10.128;2023-07-20T05:02:07;5.17;;;3.27;;
6378;SDS011;3222;48.858;10.128;2023-07-20T05:04:33;5.43;;;3.27;;
6378;SDS011;3222;48.858;10.128;2023-07-20T05:06:59;3.53;;;3.20;;
6378;SDS011;3222;48.858;10.128;2023-07-20T05:09:25;5.70;;;3.67;;
6378;SDS011;3222;48.858;10.128;2023-07-20T05:11:51;4.77;;;3.83;;
6378;SDS011;3222;48.858;10.128;2023-07-20T05:14:17;5.77;;;4.07;;
6378;SDS011;3222;48.858;10.128;2023-07-20T05:16:43;6.10;;;4.13;;
6378;SDS011;3222;48.858;10.128;2023-07-20T05:19:09;4.50;;;4.07;;
6378;SDS011;3222;48.858;10.128;2023-07-20T05:21:35;4.30;;;3.70;;
6378;SDS011;3222;48.858;10.128;2023-07-20T05:24:00;6.37;;;4.20;;
6378;SDS011;3222;48.858;10.128;2023-07-20T05:26:27;4.70;;;3.90;;
6378;SDS011;3222;48.858;10.128;2023-07-20T05:28:52;7.17;;;4.37;;
6378;SDS011;3222;48.858;10.128;2023-07-20T05:31:19;5.20;;;3.77;;
6378;SDS011;3222;48.858;10.128;2023-07-20T05:33:45;4.73;;;3.80;;
6378;SDS011;3222;48.858;10.128;2023-07-20T05:36:10;5.73;;;3.90;;
6378;SDS011;3222;48.858;10.128;2023-07-20T05:38:36;7.30;;;4.00;;
6378;SDS011;3222;48.858;10.128;2023-07-20T05:41:03;6.20;;;3.03;;
6378;SDS011;3222;48.858;10.128;2023-07-20T05:43:29;3.90;;;3.20;;
6378;SDS011;3222;48.858;10.128;2023-07-20T05:45:56;5.23;;;3.00;;
6378;SDS011;3222;48.858;10.128;2023-07-20T05:48:21;4.23;;;2.80;;
6378;SDS011;3222;48.858;10.128;2023-07-20T05:50:48;4.03;;;2.57;;
6378;SDS011;3222;48.858;10.128;2023-07-20T05:53:14;2.60;;;2.10;;
6378;SDS011;3222;48.858;10.128;2023-07-20T05:55:40;3.83;;;2.70;;
6378;SDS011;3222;48.858;10.128;2023-07-20T05:58:06;2.27;;;2.07;;
6378;SDS011;3222;48.858;10.128;2023-07-20T06:00:32;2.63;;;2.17;;
6378;SDS011;3222;48.858;10.128;2023-07-20T06:02:58;4.90;;;2.00;;
6378;SDS011;3222;48.858;10.128;2023-07-20T06:05:24;2.50;;;2.20;;
6378;SDS011;3222;48.858;10.128;2023-07-20T06:07:51;4.10;;;2.23;;
6378;SDS011;3222;48.858;10.128;2023-07-20T06:10:18;3.67;;;2.50;;
6378;SDS011;3222;48.858;10.128;2023-07-20T06:12:44;3.27;;;2.40;;
6378;SDS011;3222;48.858;10.128;2023-07-20T06:15:24;3.50;;;2.63;;
6378;SDS011;3222;48.858;10.128;2023-07-20T06:17:51;2.93;;;2.40;;
6378;SDS011;3222;48.858;10.128;2023-07-20T06:20:19;4.93;;;2.30;;
6378;SDS011;3222;48.858;10.128;2023-07-20T06:22:45;3.23;;;2.20;;
6378;SDS011;3222;48.858;10.128;2023-07-20T06:25:11;4.43;;;2.10;;
6378;SDS011;3222;48.858;10.128;2023-07-20T06:27:36;5.40;;;2.10;;
6378;SDS011;3222;48.858;10.128;2023-07-20T06:30:02;3.23;;;2.27;;
6378;SDS011;3222;48.858;10.128;2023-07-20T06:32:28;2.77;;;2.07;;
6378;SDS011;3222;48.858;10.128;2023-07-20T06:34:54;5.13;;;2.30;;
6378;SDS011;3222;48.858;10.128;2023-07-20T06:37:20;3.43;;;2.50;;
6378;SDS011;3222;48.858;10.128;2023-07-20T06:39:46;2.23;;;1.80;;
6378;SDS011;3222;48.858;10.128;2023-07-20T06:42:12;3.63;;;2.10;;
6378;SDS011;3222;48.858;10.128;2023-07-20T06:44:39;8.63;;;2.30;;
6378;SDS011;3222;48.858;10.128;2023-07-20T06:47:04;3.77;;;2.03;;
6378;SDS011;3222;48.858;10.128;2023-07-20T06:49:30;3.50;;;1.90;;
6378;SDS011;3222;48.858;10.128;2023-07-20T06:51:56;3.50;;;1.93;;
6378;SDS011;3222;48.858;10.128;2023-07-20T06:54:22;7.40;;;2.43;;
6378;SDS011;3222;48.858;10.128;2023-07-20T06:56:48;4.60;;;2.07;;
6378;SDS011;3222;48.858;10.128;2023-07-20T06:59:13;2.50;;;1.67;;
6378;SDS011;3222;48.858;10.128;2023-07-20T07:01:39;2.33;;;1.90;;
6378;SDS011;3222;48.858;10.128;2023-07-20T07:04:05;4.27;;;2.50;;
6378;SDS011;3222;48.858;10.128;2023-07-20T07:06:31;4.93;;;2.40;;
6378;SDS011;3222;48.858;10.128;2023-07-20T07:08:58;1.97;;;1.87;;
6378;SDS011;3222;48.858;10.128;2023-07-20T07:11:24;5.03;;;2.20;;
6378;SDS011;3222;48.858;10.128;2023-07-20T07:13:49;5.80;;;2.00;;
6378;SDS011;3222;48.858;10.128;2023-07-20T07:16:16;5.00;;;1.97;;
6378;SDS011;3222;48.858;10.128;2023-07-20T07:18:47;3.30;;;1.53;;
6378;SDS011;3222;48.858;10.128;2023-07-20T07:21:15;2.40;;;1.70;;
6378;SDS011;3222;48.858;10.128;2023-07-20T07:23:41;3.03;;;1.73;;
6378;SDS011;3222;48.858;10.128;2023-07-20T07:26:08;4.37;;;1.93;;
6378;SDS011;3222;48.858;10.128;2023-07-20T07:28:34;2.07;;;1.87;;
6378;SDS011;3222;48.858;10.128;2023-07-20T07:31:00;2.33;;;1.70;;
6378;SDS011;3222;48.858;10.128;2023-07-20T07:33:25;2.00;;;1.80;;
6378;SDS011;3222;48.858;10.128;2023-07-20T07:35:51;3.23;;;1.67;;
6378;SDS011;3222;48.858;10.128;2023-07-20T07:38:17;5.70;;;1.60;;
6378;SDS011;3222;48.858;10.128;2023-07-20T07:40:44;4.97;;;3.30;;
6378;SDS011;3222;48.858;10.128;2023-07-20T07:43:09;3.37;;;2.70;;
6378;SDS011;3222;48.858;10.128;2023-07-20T07:45:35;4.20;;;2.27;;
6378;SDS011;3222;48.858;10.128;2023-07-20T07:48:05;3.63;;;1.97;;
6378;SDS011;3222;48.858;10.128;2023-07-20T07:50:31;3.17;;;1.80;;
6378;SDS011;3222;48.858;10.128;2023-07-20T07:52:59;4.27;;;1.93;;
6378;SDS011;3222;48.858;10.128;2023-07-20T07:55:25;3.90;;;1.80;;
6378;SDS011;3222;48.858;10.128;2023-07-20T07:57:51;8.60;;;2.00;;
6378;SDS011;3222;48.858;10.128;2023-07-20T08:00:17;6.50;;;1.80;;
6378;SDS011;3222;48.858;10.128;2023-07-20T08:02:44;6.60;;;2.07;;
6378;SDS011;3222;48.858;10.128;2023-07-20T08:05:13;4.23;;;2.00;;
6378;SDS011;3222;48.858;10.128;2023-07-20T08:07:39;4.73;;;1.80;;
6378;SDS011;3222;48.858;10.128;2023-07-20T08:10:05;2.77;;;1.70;;
6378;SDS011;3222;48.858;10.128;2023-07-20T08:12:32;9.83;;;1.83;;
6378;SDS011;3222;48.858;10.128;2023-07-20T08:14:58;4.00;;;2.00;;
6378;SDS011;3222;48.858;10.128;2023-07-20T08:17:23;4.57;;;2.17;;
6378;SDS011;3222;48.858;10.128;2023-07-20T08:19:49;2.07;;;1.50;;
6378;SDS011;3222;48.858;10.128;2023-07-20T08:22:15;2.97;;;1.80;;
6378;SDS011;3222;48.858;10.128;2023-07-20T08:24:41;1.80;;;1.43;;
6378;SDS011;3222;48.858;10.128;2023-07-20T08:27:08;1.83;;;1.27;;
6378;SDS011;3222;48.858;10.128;2023-07-20T08:29:34;5.67;;;1.60;;
6378;SDS011;3222;48.858;10.128;2023-07-20T08:32:00;2.03;;;1.77;;
6378;SDS011;3222;48.858;10.128;2023-07-20T08:34:26;2.23;;;1.60;;
6378;SDS011;3222;48.858;10.128;2023-07-20T08:36:52;1.70;;;1.60;;
6378;SDS011;3222;48.858;10.128;2023-07-20T08:39:18;2.77;;;1.80;;
6378;SDS011;3222;48.858;10.128;2023-07-20T08:41:44;2.00;;;1.80;;
6378;SDS011;3222;48.858;10.128;2023-07-20T08:44:12;4.73;;;1.70;;
6378;SDS011;3222;48.858;10.128;2023-07-20T08:46:38;2.37;;;1.60;;
6378;SDS011;3222;48.858;10.128;2023-07-20T08:49:06;4.10;;;1.90;;
6378;SDS011;3222;48.858;10.128;2023-07-20T08:51:33;2.00;;;1.60;;
6378;SDS011;3222;48.858;10.128;2023-07-20T08:54:00;2.57;;;1.50;;
6378;SDS011;3222;48.858;10.128;2023-07-20T08:56:26;1.87;;;1.47;;
6378;SDS011;3222;48.858;10.128;2023-07-20T08:58:53;1.63;;;1.40;;
6378;SDS011;3222;48.858;10.128;2023-07-20T09:01:19;4.70;;;2.03;;
6378;SDS011;3222;48.858;10.128;2023-07-20T09:03:45;2.00;;;1.80;;
6378;SDS011;3222;48.858;10.128;2023-07-20T09:06:12;3.13;;;1.97;;
6378;SDS011;3222;48.858;10.128;2023-07-20T09:08:38;1.83;;;1.37;;
6378;SDS011;3222;48.858;10.128;2023-07-20T09:11:05;2.00;;;1.80;;
6378;SDS011;3222;48.858;10.128;2023-07-20T09:13:32;4.90;;;1.70;;
6378;SDS011;3222;48.858;10.128;2023-07-20T09:15:59;1.73;;;1.40;;
6378;SDS011;3222;48.858;10.128;2023-07-20T09:18:25;2.50;;;1.80;;
6378;SDS011;3222;48.858;10.128;2023-07-20T09:20:58;2.50;;;1.63;;
6378;SDS011;3222;48.858;10.128;2023-07-20T09:23:34;1.57;;;1.47;;
6378;SDS011;3222;48.858;10.128;2023-07-20T09:26:10;8.40;;;1.87;;
6378;SDS011;3222;48.858;10.128;2023-07-20T09:28:48;1.90;;;1.70;;
6378;SDS011;3222;48.858;10.128;2023-07-20T09:31:19;8.07;;;2.40;;
6378;SDS011;3222;48.858;10.128;2023-07-20T09:33:46;3.87;;;1.50;;
6378;SDS011;3222;48.858;10.128;2023-07-20T09:36:14;2.37;;;1.67;;
6378;SDS011;3222;48.858;10.128;2023-07-20T09:38:43;2.20;;;1.60;;
6378;SDS011;3222;48.858;10.128;2023-07-20T09:41:13;3.23;;;1.90;;
6378;SDS011;3222;48.858;10.128;2023-07-20T09:43:43;1.90;;;1.70;;
6378;SDS011;3222;48.858;10.128;2023-07-20T09:46:11;2.63;;;1.90;;
6378;SDS011;3222;48.858;10.128;2023-07-20T09:48:36;2.80;;;1.93;;
6378;SDS011;3222;48.858;10.128;2023-07-20T09:51:02;6.43;;;1.90;;
6378;SDS011;3222;48.858;10.128;2023-07-20T09:53:30;2.57;;;1.90;;
6378;SDS011;3222;48.858;10.128;2023-07-20T09:55:58;6.07;;;1.87;;
6378;SDS011;3222;48.858;10.128;2023-07-20T09:58:25;2.00;;;1.70;;
6378;SDS011;3222;48.858;10.128;2023-07-20T10:00:52;2.00;;;1.80;;
6378;SDS011;3222;48.858;10.128;2023-07-20T10:03:22;2.57;;;1.80;;
6378;SDS011;3222;48.858;10.128;2023-07-20T10:06:08;4.00;;;1.83;;
6378;SDS011;3222;48.858;10.128;2023-07-20T10:08:41;4.40;;;1.80;;
6378;SDS011;3222;48.858;10.128;2023-07-20T10:11:07;2.40;;;1.67;;
6378;SDS011;3222;48.858;10.128;2023-07-20T10:13:36;4.07;;;2.00;;
6378;SDS011;3222;48.858;10.128;2023-07-20T10:16:10;3.60;;;1.60;;
6378;SDS011;3222;48.858;10.128;2023-07-20T10:18:49;2.80;;;1.57;;
6378;SDS011;3222;48.858;10.128;2023-07-20T10:21:29;1.83;;;1.50;;
6378;SDS011;3222;48.858;10.128;2023-07-20T10:23:55;2.37;;;1.80;;
6378;SDS011;3222;48.858;10.128;2023-07-20T10:26:23;3.10;;;1.67;;
6378;SDS011;3222;48.858;10.128;2023-07-20T10:28:49;2.50;;;1.73;;
6378;SDS011;3222;48.858;10.128;2023-07-20T10:31:15;4.03;;;1.77;;
6378;SDS011;3222;48.858;10.128;2023-07-20T10:33:42;3.17;;;1.83;;
6378;SDS011;3222;48.858;10.128;2023-07-20T10:36:09;3.97;;;1.90;;
6378;SDS011;3222;48.858;10.128;2023-07-20T10:38:41;2.50;;;2.07;;
6378;SDS011;3222;48.858;10.128;2023-07-20T10:41:27;3.67;;;1.87;;
6378;SDS011;3222;48.858;10.128;2023-07-20T10:44:04;2.22;;;1.60;;
6378;SDS011;3222;48.858;10.128;2023-07-20T10:49:05;1.90;;;1.50;;
6378;SDS011;3222;48.858;10.128;2023-07-20T10:51:42;2.33;;;1.67;;
6378;SDS011;3222;48.858;10.128;2023-07-20T10:56:42;6.20;;;2.10;;
6378;SDS011;3222;48.858;10.128;2023-07-20T10:59:19;4.60;;;1.90;;
6378;SDS011;3222;48.858;10.128;2023-07-20T11:02:02;8.88;;;1.95;;
6378;SDS011;3222;48.858;10.128;2023-07-20T11:07:05;4.13;;;1.75;;
6378;SDS011;3222;48.858;10.128;2023-07-20T11:09:34;2.28;;;1.60;;
6378;SDS011;3222;48.858;10.128;2023-07-20T11:12:13;2.10;;;1.60;;
6378;SDS011;3222;48.858;10.128;2023-07-20T11:14:55;4.27;;;1.77;;
6378;SDS011;3222;48.858;10.128;2023-07-20T11:17:28;2.43;;;1.60;;
6378;SDS011;3222;48.858;10.128;2023-07-20T11:19:56;3.63;;;1.80;;
6378;SDS011;3222;48.858;10.128;2023-07-20T11:22:22;3.22;;;1.38;;
6378;SDS011;3222;48.858;10.128;2023-07-20T11:24:49;4.60;;;1.55;;
6378;SDS011;3222;48.858;10.128;2023-07-20T11:27:15;2.88;;;1.40;;
6378;SDS011;3222;48.858;10.128;2023-07-20T11:29:41;2.72;;;1.60;;
6378;SDS011;3222;48.858;10.128;2023-07-20T11:32:07;2.20;;;1.67;;
6378;SDS011;3222;48.858;10.128;2023-07-20T11:34:34;1.60;;;1.50;;
6378;SDS011;3222;48.858;10.128;2023-07-20T11:37:00;1.90;;;1.60;;
6378;SDS011;3222;48.858;10.128;2023-07-20T11:39:28;3.97;;;1.80;;
6378;SDS011;3222;48.858;10.128;2023-07-20T11:41:54;2.30;;;1.60;;
6378;SDS011;3222;48.858;10.128;2023-07-20T11:44:21;1.48;;;1.38;;
6378;SDS011;3222;48.858;10.128;2023-07-20T11:47:14;4.72;;;1.70;;
6378;SDS011;3222;48.858;10.128;2023-07-20T11:49:42;4.90;;;1.58;;
6378;SDS011;3222;48.858;10.128;2023-07-20T11:52:09;1.85;;;1.40;;
6378;SDS011;3222;48.858;10.128;2023-07-20T11:54:39;1.98;;;1.67;;
6378;SDS011;3222;48.858;10.128;2023-07-20T11:57:05;1.80;;;1.30;;
6378;SDS011;3222;48.858;10.128;2023-07-20T11:59:32;2.15;;;1.50;;
6378;SDS011;3222;48.858;10.128;2023-07-20T12:02:01;1.58;;;1.48;;
6378;SDS011;3222;48.858;10.128;2023-07-20T12:04:28;3.03;;;1.40;;
6378;SDS011;3222;48.858;10.128;2023-07-20T12:06:54;2.15;;;1.50;;
6378;SDS011;3222;48.858;10.128;2023-07-20T12:09:20;2.00;;;1.60;;
6378;SDS011;3222;48.858;10.128;2023-07-20T12:11:48;9.68;;;1.88;;
6378;SDS011;3222;48.858;10.128;2023-07-20T12:14:16;3.58;;;1.60;;
6378;SDS011;3222;48.858;10.128;2023-07-20T12:16:42;5.25;;;1.70;;
6378;SDS011;3222;48.858;10.128;2023-07-20T12:19:09;3.35;;;1.75;;
6378;SDS011;3222;48.858;10.128;2023-07-20T12:21:39;4.32;;;1.55;;
6378;SDS011;3222;48.858;10.128;2023-07-20T12:24:08;6.07;;;1.45;;
6378;SDS011;3222;48.858;10.128;2023-07-20T12:26:35;5.25;;;1.40;;
6378;SDS011;3222;48.858;10.128;2023-07-20T12:29:01;1.80;;;1.60;;
6378;SDS011;3222;48.858;10.128;2023-07-20T12:31:28;2.20;;;1.38;;
6378;SDS011;3222;48.858;10.128;2023-07-20T12:33:56;2.72;;;1.20;;
6378;SDS011;3222;48.858;10.128;2023-07-20T12:36:23;1.58;;;1.25;;
6378;SDS011;3222;48.858;10.128;2023-07-20T12:38:49;2.35;;;1.60;;
6378;SDS011;3222;48.858;10.128;2023-07-20T12:41:16;6.40;;;2.97;;
6378;SDS011;3222;48.858;10.128;2023-07-20T12:43:42;1.75;;;1.60;;
6378;SDS011;3222;48.858;10.128;2023-07-20T12:46:11;5.15;;;1.20;;
6378;SDS011;3222;48.858;10.128;2023-07-20T12:48:38;2.67;;;1.48;;
6378;SDS011;3222;48.858;10.128;2023-07-20T12:51:07;1.80;;;1.63;;
6378;SDS011;3222;48.858;10.128;2023-07-20T12:53:33;3.15;;;1.40;;
6378;SDS011;3222;48.858;10.128;2023-07-20T12:56:00;2.03;;;1.60;;
6378;SDS011;3222;48.858;10.128;2023-07-20T12:58:25;1.60;;;1.30;;
6378;SDS011;3222;48.858;10.128;2023-07-20T13:00:52;2.05;;;1.45;;
6378;SDS011;3222;48.858;10.128;2023-07-20T13:03:18;1.63;;;1.30;;
6378;SDS011;3222;48.858;10.128;2023-07-20T13:05:44;1.92;;;1.10;;
6378;SDS011;3222;48.858;10.128;2023-07-20T13:08:11;4.50;;;1.83;;
6378;SDS011;3222;48.858;10.128;2023-07-20T13:10:37;3.72;;;1.40;;
6378;SDS011;3222;48.858;10.128;2023-07-20T13:13:04;2.03;;;1.30;;
6378;SDS011;3222;48.858;10.128;2023-07-20T13:15:31;2.47;;;1.92;;
6378;SDS011;3222;48.858;10.128;2023-07-20T13:17:58;1.30;;;1.15;;
6378;SDS011;3222;48.858;10.128;2023-07-20T13:20:24;4.03;;;1.08;;
6378;SDS011;3222;48.858;10.128;2023-07-20T13:22:50;1.20;;;1.10;;
6378;SDS011;3222;48.858;10.128;2023-07-20T13:25:16;1.30;;;1.13;;
6378;SDS011;3222;48.858;10.128;2023-07-20T13:27:42;1.63;;;1.30;;
6378;SDS011;3222;48.858;10.128;2023-07-20T13:30:08;2.90;;;1.08;;
6378;SDS011;3222;48.858;10.128;2023-07-20T13:32:36;1.88;;;0.90;;
6378;SDS011;3222;48.858;10.128;2023-07-20T13:35:02;1.33;;;1.10;;
6378;SDS011;3222;48.858;10.128;2023-07-20T13:37:29;2.10;;;1.33;;
6378;SDS011;3222;48.858;10.128;2023-07-20T13:39:55;3.08;;;1.30;;
6378;SDS011;3222;48.858;10.128;2023-07-20T13:42:20;4.50;;;1.30;;
6378;SDS011;3222;48.858;10.128;2023-07-20T13:44:47;1.38;;;1.23;;
6378;SDS011;3222;48.858;10.128;2023-07-20T13:47:13;2.20;;;1.40;;
6378;SDS011;3222;48.858;10.128;2023-07-20T13:49:39;3.75;;;1.30;;
6378;SDS011;3222;48.858;10.128;2023-07-20T13:52:05;2.67;;;1.63;;
6378;SDS011;3222;48.858;10.128;2023-07-20T13:54:31;2.20;;;2.00;;
6378;SDS011;3222;48.858;10.128;2023-07-20T13:56:57;1.58;;;1.48;;
6378;SDS011;3222;48.858;10.128;2023-07-20T13:59:23;2.80;;;1.52;;
6378;SDS011;3222;48.858;10.128;2023-07-20T14:01:48;2.22;;;1.25;;
6378;SDS011;3222;48.858;10.128;2023-07-20T14:04:14;1.50;;;1.10;;
6378;SDS011;3222;48.858;10.128;2023-07-20T14:06:40;1.60;;;1.02;;
6378;SDS011;3222;48.858;10.128;2023-07-20T14:09:06;1.48;;;1.30;;
6378;SDS011;3222;48.858;10.128;2023-07-20T14:11:32;1.92;;;1.13;;
6378;SDS011;3222;48.858;10.128;2023-07-20T14:13:58;1.25;;;1.10;;
6378;SDS011;3222;48.858;10.128;2023-07-20T14:16:24;1.13;;;1.00;;
6378;SDS011;3222;48.858;10.128;2023-07-20T14:18:51;1.75;;;1.45;;
6378;SDS011;3222;48.858;10.128;2023-07-20T14:21:17;2.17;;;1.20;;
6378;SDS011;3222;48.858;10.128;2023-07-20T14:23:45;3.08;;;1.40;;
6378;SDS011;3222;48.858;10.128;2023-07-20T14:26:12;1.08;;;1.00;;
6378;SDS011;3222;48.858;10.128;2023-07-20T14:28:38;1.48;;;1.20;;
6378;SDS011;3222;48.858;10.128;2023-07-20T14:31:04;1.52;;;1.10;;
6378;SDS011;3222;48.858;10.128;2023-07-20T14:33:30;1.40;;;1.15;;
6378;SDS011;3222;48.858;10.128;2023-07-20T14:35:56;1.38;;;1.00;;
6378;SDS011;3222;48.858;10.128;2023-07-20T14:38:22;1.95;;;1.15;;
6378;SDS011;3222;48.858;10.128;2023-07-20T14:40:47;1.80;;;1.35;;
6378;SDS011;3222;48.858;10.128;2023-07-20T14:43:13;3.10;;;1.20;;
6378;SDS011;3222;48.858;10.128;2023-07-20T14:45:40;1.95;;;1.50;;
6378;SDS011;3222;48.858;10.128;2023-07-20T14:48:06;2.10;;;1.80;;
6378;SDS011;3222;48.858;10.128;2023-07-20T14:50:32;3.35;;;3.05;;
6378;SDS011;3222;48.858;10.128;2023-07-20T14:52:59;3.00;;;2.70;;
6378;SDS011;3222;48.858;10.128;2023-07-20T14:55:25;2.78;;;1.48;;
6378;SDS011;3222;48.858;10.128;2023-07-20T14:57:50;1.48;;;1.38;;
6378;SDS011;3222;48.858;10.128;2023-07-20T15:00:16;1.38;;;1.27;;
6378;SDS011;3222;48.858;10.128;2023-07-20T15:02:42;1.40;;;1.02;;
6378;SDS011;3222;48.858;10.128;2023-07-20T15:05:09;2.90;;;1.10;;
6378;SDS011;3222;48.858;10.128;2023-07-20T15:07:35;2.03;;;1.20;;
6378;SDS011;3222;48.858;10.128;2023-07-20T15:10:02;14.50;;;1.60;;
6378;SDS011;3222;48.858;10.128;2023-07-20T15:12:29;3.85;;;1.10;;
6378;SDS011;3222;48.858;10.128;2023-07-20T15:15:13;3.30;;;1.30;;
6378;SDS011;3222;48.858;10.128;2023-07-20T15:17:41;1.48;;;0.90;;